Portada
METAR-TAF:

METAR-TAF

Aeroports :

Chiang Rai, Tailàndia

latitud: 19-57-08N, longitud: 099-52-59E, altitud: 390 m

Observació

L'informe es va fer fa 40 minuts, a les 05:00 UTC
Vent 4 kt del Sud
Temperatura 29°C
Humitat 45%
Pressió 1013 hPa
Visibilitat: 8000 m

METAR: VTCT 280500Z 17004KT 8000 NSC 29/16 Q1013 NOSIG

Hora: 12:40 (05:40 UTC)

Pronòstic

L'informe es va fer fa 6 hores i 40 minuts, a les 23:00 UTC
Pronòstic vàlid del 28 a les 00 UTC al 29 a les 06 UTC
Vent 5 kt del Oest/Sud-Oest
Visibilitat: 8000 m
Escasses núvols a una alçada de 3500 ft

TAF: VTCT 272300Z 2800/2906 24005KT 8000 FEW035

Observacions i pronòstics meteorològics de més de 4000 aeroports (METAR i TAF).

Les estacions disponibles són els punts grocs i vermells al mapa.

Posi el ratolí al punt desitjat per veure el nom de l'estació.

Feu clic per veure les observacions i els pronòstics meteorològics.

Per canviar el mapa: feu clic els botons verds amb una creu de color negre per apropar; al botó verd amb un guió per allunyar la imatge; o en les fletxes verdes per a mapes adjacents.


METAR-TAF: